Terminal Aerodrome Forecast
Issued by NWS

Home | Current Version | Previous Version | Text Only | Print | Product List | Glossary On
Versions: 1 2 3 4 5 6 7 8 9 10 11 12 13 14 15 16 17 18 19 20 21 22 23 24 25
000
FTUS41 KOKX 291740
TAFHPN
TAF
KHPN 291740Z 2918/3018 10003KT 5SM -DZ BR BKN005 OVC012
     FM292000 13003KT P6SM SCT005 OVC012
     FM300400 13002KT 2SM -DZ BR OVC004
     FM301300 13004KT 5SM BR BKN008 OVC012
     FM301500 13006KT P6SM OVC015
      AMD NOT SKED=

USA.gov is the U.S. government's official web portal to all federal, state and local government web resources and services.